Time;durP1;ratioP1;P1;durP2;ratioP2;P2;SDS_P1;SDS_P2;PMS_P1;PMS_P2;Temp;Humidity;BMP_temperature;BMP_pressure;BME280_temperature;BME280_humidity;BME280_pressure;Samples;Min_cycle;Max_cycle;Signal;HPM_P1;HPM_P2
2021/01/31 00:00:22;;;;;;;45.75;27.60;;;6.50;99.90;;;;;;6183410;23;19998;-79
2021/01/31 00:02:49;;;;;;;42.10;27.45;;;6.40;99.90;;;;;;6183058;23;20076;-80
2021/01/31 00:05:15;;;;;;;39.63;25.83;;;6.40;99.90;;;;;;6183087;23;20071;-80
2021/01/31 00:07:42;;;;;;;41.33;27.65;;;6.40;99.90;;;;;;6184244;23;20005;-79
2021/01/31 00:10:09;;;;;;;43.45;28.60;;;6.30;99.90;;;;;;6183755;23;20013;-79
2021/01/31 00:12:35;;;;;;;42.42;27.95;;;6.50;99.90;;;;;;6186690;23;20300;-80
2021/01/31 00:15:01;;;;;;;45.22;27.45;;;6.60;99.90;;;;;;6184995;23;20028;-80
2021/01/31 00:17:26;;;;;;;45.03;27.90;;;6.50;99.90;;;;;;6187184;23;20019;-86
2021/01/31 00:19:52;;;;;;;197.30;98.65;;;6.40;99.90;;;;;;6185393;23;20075;-81
2021/01/31 00:22:18;;;;;;;128.95;71.50;;;6.80;99.90;;;;;;6185184;23;20068;-80
2021/01/31 00:24:44;;;;;;;78.45;44.97;;;6.90;99.90;;;;;;6162281;23;20008;-80
2021/01/31 00:27:09;;;;;;;54.95;33.03;;;6.80;99.90;;;;;;6178721;23;20383;-79
2021/01/31 00:29:35;;;;;;;44.42;28.80;;;6.70;99.90;;;;;;6184107;23;19993;-81
2021/01/31 00:32:01;;;;;;;46.75;29.25;;;6.60;99.90;;;;;;6184771;23;20120;-79
2021/01/31 00:34:27;;;;;;;48.90;28.50;;;6.60;99.90;;;;;;6184542;23;20050;-85
2021/01/31 00:36:53;;;;;;;45.00;29.65;;;6.60;99.90;;;;;;6158526;23;20386;-81
2021/01/31 00:39:18;;;;;;;52.25;30.98;;;6.00;99.90;;;;;;6182933;23;20001;-79
2021/01/31 00:41:44;;;;;;;51.25;31.30;;;6.00;99.90;;;;;;6157674;23;20020;-80
2021/01/31 00:44:11;;;;;;;52.70;31.95;;;6.20;99.90;;;;;;6157611;23;20009;-80
2021/01/31 00:46:40;;;;;;;45.35;28.73;;;6.30;99.90;;;;;;6183979;23;20005;-81
2021/01/31 00:49:07;;;;;;;47.90;27.05;;;6.30;99.90;;;;;;6184410;23;20001;-80
2021/01/31 00:51:33;;;;;;;38.97;25.05;;;6.30;99.90;;;;;;6184282;23;20004;-81
2021/01/31 00:53:59;;;;;;;41.42;25.52;;;6.30;99.90;;;;;;6157826;23;19993;-80
2021/01/31 00:56:25;;;;;;;38.17;24.13;;;6.40;99.90;;;;;;6183732;23;20015;-80
2021/01/31 00:58:51;;;;;;;37.25;23.55;;;6.20;99.90;;;;;;6184321;23;19989;-79
2021/01/31 01:01:19;;;;;;;40.80;25.35;;;6.20;99.90;;;;;;6157776;23;20005;-79
2021/01/31 01:03:45;;;;;;;43.63;25.55;;;6.30;99.90;;;;;;6157322;23;20020;-80
2021/01/31 01:06:11;;;;;;;39.25;25.17;;;6.40;99.90;;;;;;6157283;23;20014;-80
2021/01/31 01:08:37;;;;;;;41.35;25.17;;;6.50;99.90;;;;;;6182077;23;20304;-81
2021/01/31 01:11:04;;;;;;;40.72;25.65;;;6.30;99.90;;;;;;6157014;23;20381;-81
2021/01/31 01:13:30;;;;;;;38.15;24.10;;;6.00;99.90;;;;;;6184101;23;20005;-81
2021/01/31 01:15:56;;;;;;;39.33;24.60;;;6.40;99.90;;;;;;6183776;23;20008;-82
2021/01/31 01:18:22;;;;;;;38.00;24.70;;;6.20;99.90;;;;;;6184355;23;20028;-80
2021/01/31 01:20:48;;;;;;;43.92;24.38;;;6.20;99.90;;;;;;6183326;23;20330;-82
2021/01/31 01:23:14;;;;;;;41.08;23.00;;;6.30;99.90;;;;;;6183796;23;20335;-81
2021/01/31 01:25:40;;;;;;;37.05;24.80;;;6.50;99.90;;;;;;6184522;23;20017;-79
2021/01/31 01:28:06;;;;;;;33.60;24.05;;;5.90;99.90;;;;;;6184239;23;20078;-79
2021/01/31 01:30:33;;;;;;;33.38;22.08;;;6.00;99.90;;;;;;6183802;23;20001;-79
2021/01/31 01:32:59;;;;;;;34.10;23.15;;;6.10;99.90;;;;;;6184229;23;20338;-83
2021/01/31 01:35:27;;;;;;;38.88;23.73;;;6.20;99.90;;;;;;6184641;23;19989;-83
2021/01/31 01:37:52;;;;;;;33.45;22.38;;;6.40;99.90;;;;;;6184370;23;19993;-80
2021/01/31 01:40:30;;;;;;;34.45;23.20;;;6.40;99.90;;;;;;6186377;23;20051;-82
2021/01/31 01:42:56;;;;;;;35.72;24.33;;;6.40;99.90;;;;;;6184852;23;20011;-81
2021/01/31 01:45:40;;;;;;;33.17;21.80;;;6.40;99.90;;;;;;6157712;23;19997;-81
2021/01/31 01:48:20;;;;;;;33.00;22.10;;;6.30;99.90;;;;;;6184445;23;20441;-82
2021/01/31 01:50:53;;;;;;;32.55;21.85;;;6.20;99.90;;;;;;6157550;23;20005;-81
2021/01/31 01:53:26;;;;;;;33.78;21.92;;;6.40;99.90;;;;;;6184656;23;19997;-80
2021/01/31 01:56:06;;;;;;;32.83;21.85;;;6.30;99.90;;;;;;6183922;23;20001;-80
2021/01/31 01:58:33;;;;;;;33.60;21.63;;;6.30;99.90;;;;;;6184171;23;20005;-80
2021/01/31 02:01:01;;;;;;;35.15;22.27;;;6.20;99.90;;;;;;6184486;23;20008;-81
2021/01/31 02:03:33;;;;;;;33.40;21.40;;;6.30;99.90;;;;;;6158173;23;20056;-81
2021/01/31 02:06:08;;;;;;;35.17;22.77;;;6.30;99.90;;;;;;6184081;23;20060;-81
2021/01/31 02:08:35;;;;;;;36.85;23.40;;;5.80;99.90;;;;;;6184516;23;20469;-82
2021/01/31 02:11:01;;;;;;;36.17;22.10;;;4.90;99.90;;;;;;6158301;23;20338;-81
2021/01/31 02:13:28;;;;;;;36.20;22.73;;;5.40;99.90;;;;;;6157997;23;20028;-81
2021/01/31 02:15:58;;;;;;;35.47;22.95;;;5.90;99.90;;;;;;6183310;23;20427;-79
2021/01/31 02:18:35;;;;;;;34.13;23.80;;;6.10;99.90;;;;;;6183864;23;20048;-80
2021/01/31 02:21:11;;;;;;;36.58;23.88;;;6.30;99.90;;;;;;6157345;23;20012;-79
2021/01/31 02:24:13;;;;;;;36.72;25.02;;;6.30;99.90;;;;;;6183947;23;20001;-79
2021/01/31 02:27:00;;;;;;;38.97;24.77;;;6.30;99.90;;;;;;6156805;23;20025;-79
2021/01/31 02:30:00;;;;;;;38.47;25.08;;;6.00;99.90;;;;;;6183498;23;20105;-80
2021/01/31 02:32:55;;;;;;;41.53;24.73;;;5.80;99.90;;;;;;6127887;23;20006;-81
2021/01/31 02:35:24;;;;;;;39.90;24.80;;;5.80;99.90;;;;;;6158613;23;20080;-84
2021/01/31 02:38:12;;;;;;;41.13;24.38;;;5.80;99.90;;;;;;6158112;23;20386;-82
2021/01/31 02:40:51;;;;;;;41.13;25.50;;;6.00;99.90;;;;;;6184601;23;19997;-86
2021/01/31 02:43:31;;;;;;;42.40;24.00;;;6.10;99.90;;;;;;6183843;23;20028;-82
2021/01/31 02:46:04;;;;;;;40.22;24.95;;;6.10;99.90;;;;;;6186225;23;20360;-84
2021/01/31 02:48:38;;;;;;;38.47;24.77;;;6.20;99.90;;;;;;6186654;23;20315;-81
2021/01/31 02:51:07;;;;;;;40.22;24.90;;;6.20;99.90;;;;;;6185789;23;20116;-86
2021/01/31 02:53:49;;;;;;;46.63;27.90;;;6.20;99.90;;;;;;6186117;23;20032;-81
2021/01/31 02:56:21;;;;;;;37.20;25.33;;;6.20;99.90;;;;;;6185148;23;20008;-81
2021/01/31 02:59:11;;;;;;;42.00;26.42;;;6.00;99.90;;;;;;6185783;23;20024;-81
2021/01/31 03:01:56;;;;;;;39.67;24.77;;;5.70;99.90;;;;;;6159654;23;20009;-81
2021/01/31 03:04:32;;;;;;;40.20;25.45;;;5.90;99.90;;;;;;6185713;23;20001;-81
2021/01/31 03:07:12;;;;;;;39.22;24.85;;;5.80;99.90;;;;;;6186316;23;20284;-81
2021/01/31 03:09:50;;;;;;;39.35;23.58;;;5.80;99.90;;;;;;6185830;23;20064;-81
2021/01/31 03:12:28;;;;;;;39.22;25.90;;;5.60;99.90;;;;;;6159698;23;20437;-81
2021/01/31 03:15:01;;;;;;;43.00;25.10;;;5.80;99.90;;;;;;6185578;23;20032;-79
2021/01/31 03:17:29;;;;;;;41.80;26.30;;;5.70;99.90;;;;;;6185112;23;20004;-81
2021/01/31 03:20:18;;;;;;;42.00;26.10;;;5.80;99.90;;;;;;6185622;23;20614;-79
2021/01/31 03:22:53;;;;;;;38.92;24.50;;;5.70;99.90;;;;;;6185312;23;20079;-79
2021/01/31 03:25:25;;;;;;;43.03;26.40;;;5.10;99.90;;;;;;6185416;23;20004;-79
2021/01/31 03:27:51;;;;;;;41.38;25.95;;;5.00;99.90;;;;;;6185067;23;20148;-79
2021/01/31 03:30:17;;;;;;;45.47;26.88;;;5.20;99.90;;;;;;6185345;23;20033;-80
2021/01/31 03:32:54;;;;;;;40.17;25.73;;;5.30;99.90;;;;;;6184854;23;19997;-79
2021/01/31 03:35:24;;;;;;;49.85;29.70;;;5.30;99.90;;;;;;6185119;23;20005;-79
2021/01/31 03:38:13;;;;;;;46.00;29.48;;;5.40;99.90;;;;;;6184973;23;20080;-79
2021/01/31 03:40:43;;;;;;;48.60;29.40;;;5.30;99.90;;;;;;6165990;23;20032;-79
2021/01/31 03:43:09;;;;;;;44.17;28.53;;;5.20;99.90;;;;;;6185136;23;20001;-79
2021/01/31 03:46:12;;;;;;;46.90;29.60;;;5.30;99.90;;;;;;6185193;23;20246;-79
2021/01/31 03:48:55;;;;;;;40.63;27.65;;;5.60;99.90;;;;;;6185268;23;20315;-79
2021/01/31 03:51:21;;;;;;;44.47;27.30;;;5.80;99.90;;;;;;6185048;23;20001;-81
2021/01/31 03:53:47;;;;;;;40.22;26.73;;;5.80;99.90;;;;;;6184638;23;20000;-80
2021/01/31 03:56:19;;;;;;;40.25;26.08;;;5.90;99.90;;;;;;6183619;23;20039;-79
2021/01/31 03:58:47;;;;;;;44.33;26.20;;;5.80;99.90;;;;;;6185091;23;20005;-78
2021/01/31 04:01:13;;;;;;;56.17;32.83;;;5.80;99.90;;;;;;6184878;23;19993;-80
2021/01/31 04:06:37;;;;;;;53.88;30.98;;;5.50;99.90;;;;;;6092863;23;20432;-82
2021/01/31 04:09:05;;;;;;;53.70;31.75;;;5.50;99.90;;;;;;6171859;23;20025;-81
2021/01/31 04:11:43;;;;;;;54.30;31.73;;;5.70;99.90;;;;;;6158944;23;20009;-81
2021/01/31 04:14:11;;;;;;;45.83;29.38;;;5.80;99.90;;;;;;6185141;23;19993;-82
2021/01/31 04:16:43;;;;;;;46.45;29.38;;;5.70;99.90;;;;;;6184522;23;20005;-80
2021/01/31 04:28:43;;;;;;;50.10;28.33;;;5.70;99.90;;;;;;6120867;23;20116;-81
2021/01/31 04:31:08;;;;;;;51.40;29.88;;;5.70;99.90;;;;;;6125631;23;20006;-82
2021/01/31 04:33:34;;;;;;;46.97;28.48;;;5.70;99.90;;;;;;6123423;23;20448;-80
2021/01/31 04:36:00;;;;;;;47.70;29.42;;;5.80;99.90;;;;;;6124706;23;20002;-80
2021/01/31 04:38:25;;;;;;;45.88;30.55;;;5.90;99.90;;;;;;6125103;23;20011;-79
2021/01/31 04:40:51;;;;;;;46.95;29.20;;;5.80;99.90;;;;;;6125460;23;19994;-80
2021/01/31 04:43:19;;;;;;;47.10;28.92;;;5.80;99.90;;;;;;6125293;23;20060;-79
2021/01/31 04:45:45;;;;;;;46.50;28.52;;;5.70;99.90;;;;;;6125623;23;20002;-80
2021/01/31 04:48:37;;;;;;;46.80;30.40;;;5.60;99.90;;;;;;6125054;23;20006;-80
2021/01/31 04:51:11;;;;;;;44.08;28.35;;;5.70;99.90;;;;;;6125415;23;20005;-79
2021/01/31 04:53:58;;;;;;;51.22;30.35;;;5.40;99.90;;;;;;6124794;23;20336;-79
2021/01/31 04:56:51;;;;;;;53.63;29.42;;;5.40;99.90;;;;;;6124861;23;20021;-80
2021/01/31 04:59:40;;;;;;;46.58;29.00;;;5.50;99.90;;;;;;6124788;23;19998;-80
2021/01/31 05:02:26;;;;;;;46.95;27.85;;;5.50;99.90;;;;;;6124829;23;20393;-80
2021/01/31 05:04:55;;;;;;;42.25;26.27;;;5.50;99.90;;;;;;6125122;23;20002;-80
2021/01/31 05:07:34;;;;;;;43.78;27.10;;;5.50;99.90;;;;;;6124925;23;20010;-80
2021/01/31 05:10:00;;;;;;;43.20;26.20;;;5.40;99.90;;;;;;6123282;23;20005;-80
2021/01/31 05:12:52;;;;;;;42.83;26.48;;;5.20;99.90;;;;;;6123577;23;20017;-80
2021/01/31 05:15:26;;;;;;;42.17;26.30;;;5.30;99.90;;;;;;6120629;23;20014;-80
2021/01/31 05:17:56;;;;;;;35.70;25.00;;;5.50;99.90;;;;;;6124040;23;20340;-80
2021/01/31 05:20:25;;;;;;;35.60;23.52;;;5.50;99.90;;;;;;6123125;23;20014;-81
2021/01/31 05:22:55;;;;;;;47.50;27.10;;;5.40;99.90;;;;;;6123103;23;20064;-79
2021/01/31 05:25:25;;;;;;;41.47;26.33;;;5.10;99.90;;;;;;6122949;23;20002;-79
2021/01/31 05:27:58;;;;;;;38.60;25.05;;;5.40;99.90;;;;;;6124625;23;20018;-79
2021/01/31 05:30:26;;;;;;;41.63;24.63;;;5.50;99.90;;;;;;6098911;23;20010;-80
2021/01/31 05:33:10;;;;;;;42.38;25.77;;;5.50;99.90;;;;;;6122823;23;20002;-80
2021/01/31 05:35:42;;;;;;;43.40;25.02;;;5.40;99.90;;;;;;6124808;23;20005;-81
2021/01/31 05:38:09;;;;;;;37.53;24.90;;;5.50;99.90;;;;;;6124209;23;20013;-80
2021/01/31 05:40:37;;;;;;;39.88;23.63;;;5.30;99.90;;;;;;6124764;23;20012;-79
2021/01/31 05:43:06;;;;;;;37.88;22.38;;;5.20;99.90;;;;;;6125424;23;20009;-79
2021/01/31 05:45:37;;;;;;;33.95;22.63;;;5.40;99.90;;;;;;6124778;23;20002;-79
2021/01/31 05:48:38;;;;;;;38.38;23.75;;;5.30;99.90;;;;;;6123140;23;20061;-79
2021/01/31 05:51:19;;;;;;;37.63;22.83;;;5.20;99.90;;;;;;6120228;23;20006;-79
2021/01/31 05:53:44;;;;;;;37.40;23.63;;;5.20;99.90;;;;;;6125033;23;20113;-84
2021/01/31 05:56:16;;;;;;;37.50;22.90;;;5.30;99.90;;;;;;6124693;23;20662;-80
2021/01/31 05:58:42;;;;;;;37.50;22.77;;;5.30;99.90;;;;;;6124889;23;20333;-83
2021/01/31 06:01:12;;;;;;;36.00;22.95;;;5.40;99.90;;;;;;6124817;23;20400;-79
2021/01/31 06:03:38;;;;;;;35.17;21.65;;;5.40;99.90;;;;;;6124577;23;20450;-80
2021/01/31 06:06:24;;;;;;;31.77;19.75;;;5.50;99.90;;;;;;6124661;23;20081;-80
2021/01/31 06:08:52;;;;;;;33.30;20.58;;;5.50;99.90;;;;;;6122130;23;20016;-79
2021/01/31 06:11:26;;;;;;;32.35;19.98;;;5.10;99.90;;;;;;6124907;23;20025;-81
2021/01/31 06:14:06;;;;;;;31.80;20.13;;;5.10;99.90;;;;;;6123086;23;20002;-80
2021/01/31 06:16:33;;;;;;;34.58;21.25;;;5.30;99.90;;;;;;6124628;23;20353;-80
2021/01/31 06:19:24;;;;;;;31.65;20.58;;;5.30;99.90;;;;;;6125590;23;20045;-83
2021/01/31 06:21:50;;;;;;;29.33;19.42;;;5.20;99.90;;;;;;6120950;23;20075;-82
2021/01/31 06:24:27;;;;;;;33.67;18.73;;;5.20;99.90;;;;;;6124893;23;20100;-80
2021/01/31 06:27:11;;;;;;;31.05;19.27;;;5.10;99.90;;;;;;6119792;23;20021;-80
2021/01/31 06:30:16;;;;;;;31.60;20.30;;;5.10;99.90;;;;;;6125751;23;20344;-80
2021/01/31 06:32:41;;;;;;;28.55;19.50;;;5.00;99.90;;;;;;6124646;23;20006;-79
2021/01/31 06:35:11;;;;;;;37.00;20.35;;;5.30;99.90;;;;;;6126822;23;20092;-80
2021/01/31 06:37:59;;;;;;;32.90;20.77;;;5.50;99.90;;;;;;6126277;23;20010;-79
2021/01/31 06:40:43;;;;;;;31.63;20.88;;;5.40;99.90;;;;;;6124911;23;20017;-80
2021/01/31 06:43:36;;;;;;;32.97;19.15;;;5.50;99.90;;;;;;6125085;23;20017;-79
2021/01/31 06:46:09;;;;;;;31.48;19.73;;;5.20;99.90;;;;;;6124972;23;20009;-78
2021/01/31 06:49:00;;;;;;;31.55;19.27;;;5.20;99.90;;;;;;6125847;23;19998;-79
2021/01/31 06:52:00;;;;;;;32.30;21.88;;;5.30;99.90;;;;;;6126407;23;20002;-79
2021/01/31 06:54:44;;;;;;;40.50;24.63;;;5.50;99.90;;;;;;6126267;23;20037;-80
2021/01/31 06:57:25;;;;;;;40.72;23.23;;;5.50;99.90;;;;;;6126897;23;20018;-80
2021/01/31 07:00:06;;;;;;;;;;;5.30;99.90;;;;;;6126923;23;20002;-80
2021/01/31 07:02:59;;;;;;;39.67;22.60;;;5.40;99.90;;;;;;6124412;23;19940;-79
2021/01/31 07:05:57;;;;;;;39.53;25.02;;;5.50;99.90;;;;;;6125949;23;20005;-78
2021/01/31 07:08:32;;;;;;;40.30;24.45;;;5.60;99.90;;;;;;6108246;23;20093;-78
2021/01/31 07:11:12;;;;;;;46.33;25.00;;;5.70;99.90;;;;;;6126030;23;20002;-78
2021/01/31 07:14:01;;;;;;;36.30;23.45;;;5.80;99.90;;;;;;6125872;23;20037;-78
2021/01/31 07:16:39;;;;;;;41.00;24.35;;;5.70;99.90;;;;;;6095495;23;20038;-79
2021/01/31 07:19:29;;;;;;;40.75;24.95;;;5.80;99.90;;;;;;6125672;23;20029;-79
2021/01/31 07:22:05;;;;;;;43.63;26.95;;;5.40;99.90;;;;;;6124249;23;20006;-79
2021/01/31 07:25:20;;;;;;;41.45;27.50;;;5.60;99.90;;;;;;6125234;23;19998;-78
2021/01/31 07:27:57;;;;;;;44.20;28.23;;;5.80;99.90;;;;;;6094586;23;20109;-80
2021/01/31 07:30:24;;;;;;;47.03;26.50;;;6.00;99.90;;;;;;6094853;23;20018;-78
2021/01/31 07:33:15;;;;;;;44.40;26.70;;;6.10;99.90;;;;;;6094309;23;20433;-78
2021/01/31 07:36:08;;;;;;;40.72;27.52;;;6.00;99.90;;;;;;6095987;23;19998;-79
2021/01/31 07:38:39;;;;;;;42.30;27.50;;;5.90;99.90;;;;;;6096090;23;20029;-79
2021/01/31 07:41:07;;;;;;;40.40;27.38;;;5.80;99.90;;;;;;6096058;23;20003;-80
2021/01/31 07:43:37;;;;;;;37.45;25.02;;;5.90;99.90;;;;;;6096043;23;20006;-80
2021/01/31 07:46:38;;;;;;;39.40;26.60;;;5.90;99.90;;;;;;6094748;23;20006;-83
2021/01/31 07:49:56;;;;;;;37.60;25.60;;;6.00;99.90;;;;;;6069101;23;20046;-84
2021/01/31 07:55:43;;;;;;;35.83;25.00;;;5.70;99.90;;;;;;6096826;23;20013;-83
2021/01/31 07:58:24;;;;;;;36.47;24.98;;;5.80;99.90;;;;;;6097212;23;20011;-82
2021/01/31 08:00:54;;;;;;;35.35;24.13;;;5.70;99.90;;;;;;6096929;23;20002;-80
2021/01/31 08:03:23;;;;;;;37.80;25.08;;;5.70;99.90;;;;;;6094716;23;20341;-80
2021/01/31 08:06:28;;;;;;;40.53;24.80;;;5.80;99.90;;;;;;6096516;23;20043;-80
2021/01/31 08:08:55;;;;;;;35.08;23.52;;;5.60;99.90;;;;;;6095616;23;20014;-78
2021/01/31 08:11:21;;;;;;;35.33;23.02;;;5.80;99.90;;;;;;6096039;23;19999;-79
2021/01/31 08:13:49;;;;;;;36.22;24.35;;;5.80;99.90;;;;;;6094894;23;20010;-79
2021/01/31 08:16:40;;;;;;;38.78;24.55;;;5.80;99.90;;;;;;6070528;23;20390;-78
2021/01/31 08:19:23;;;;;;;43.80;23.85;;;6.10;99.90;;;;;;6095392;23;20057;-79
2021/01/31 08:22:06;;;;;;;37.67;24.65;;;6.30;99.90;;;;;;6096153;23;20003;-78
2021/01/31 08:25:06;;;;;;;40.55;24.85;;;6.60;99.90;;;;;;6095615;23;19999;-78
2021/01/31 08:27:38;;;;;;;36.78;25.27;;;6.70;99.90;;;;;;6095444;23;20022;-79
2021/01/31 08:30:27;;;;;;;36.67;24.60;;;6.40;99.90;;;;;;6095916;23;20002;-80
2021/01/31 08:33:01;;;;;;;39.97;25.95;;;6.60;99.90;;;;;;6095676;23;20005;-80
2021/01/31 08:35:41;;;;;;;40.45;26.30;;;6.80;99.90;;;;;;6095944;23;20010;-79
2021/01/31 08:38:20;;;;;;;38.10;26.23;;;6.80;99.90;;;;;;6093952;23;20026;-80
2021/01/31 08:41:01;;;;;;;44.00;26.70;;;7.00;99.90;;;;;;6095771;23;20329;-77
2021/01/31 08:43:49;;;;;;;42.65;27.08;;;7.10;99.90;;;;;;6095996;23;20014;-77
2021/01/31 08:46:31;;;;;;;37.97;25.48;;;7.10;99.90;;;;;;6095305;23;20077;-77
2021/01/31 08:49:00;;;;;;;37.75;25.88;;;7.20;99.90;;;;;;6095644;23;19994;-78
2021/01/31 08:51:35;;;;;;;41.55;26.02;;;7.30;99.90;;;;;;6094113;23;20029;-79
2021/01/31 08:54:06;;;;;;;38.28;25.48;;;7.30;99.90;;;;;;6095320;23;20057;-79
2021/01/31 08:56:55;;;;;;;43.85;27.23;;;7.20;99.90;;;;;;6095437;23;20437;-80
2021/01/31 08:59:33;;;;;;;40.05;25.92;;;7.10;99.90;;;;;;6095030;23;20010;-78
2021/01/31 09:01:58;;;;;;;41.97;26.35;;;7.30;99.90;;;;;;6095765;23;20033;-78
2021/01/31 09:04:26;;;;;;;41.75;26.65;;;7.30;99.90;;;;;;6095324;23;20002;-79
2021/01/31 09:06:53;;;;;;;41.80;27.73;;;7.40;99.90;;;;;;6095460;23;20013;-78
2021/01/31 09:09:26;;;;;;;43.05;29.30;;;7.50;99.90;;;;;;6095212;23;20064;-78
2021/01/31 09:12:03;;;;;;;47.03;27.10;;;7.60;99.90;;;;;;6095151;23;20002;-79
2021/01/31 09:14:34;;;;;;;41.78;26.70;;;7.70;99.90;;;;;;6095595;23;20002;-80
2021/01/31 09:17:09;;;;;;;44.10;29.83;;;7.60;99.90;;;;;;6095247;23;20018;-80
2021/01/31 09:19:36;;;;;;;48.75;28.88;;;7.70;99.90;;;;;;6095068;23;20026;-80
2021/01/31 09:22:12;;;;;;;42.90;29.58;;;7.80;99.90;;;;;;6095213;23;20322;-79
2021/01/31 09:24:41;;;;;;;40.65;27.85;;;7.90;99.90;;;;;;6095422;23;20325;-79
2021/01/31 09:27:17;;;;;;;47.97;30.10;;;8.00;99.90;;;;;;6093594;23;20049;-80
2021/01/31 09:29:46;;;;;;;40.92;28.92;;;8.10;99.90;;;;;;6094980;23;20003;-81
2021/01/31 09:32:25;;;;;;;45.67;28.88;;;7.80;99.90;;;;;;6069258;23;20002;-81
2021/01/31 09:34:53;;;;;;;42.03;25.92;;;8.00;99.90;;;;;;6094417;23;20033;-80
2021/01/31 09:37:24;;;;;;;42.03;26.42;;;8.20;99.90;;;;;;6095218;23;20037;-80
2021/01/31 09:39:52;;;;;;;44.65;27.15;;;8.30;99.90;;;;;;6095253;23;20002;-80
2021/01/31 09:42:21;;;;;;;44.38;27.92;;;8.30;99.90;;;;;;6093853;23;20431;-85
2021/01/31 09:45:14;;;;;;;40.80;26.90;;;7.90;99.90;;;;;;6070024;23;20337;-79
2021/01/31 09:47:40;;;;;;;42.17;28.17;;;7.80;99.90;;;;;;6094573;23;19994;-78
2021/01/31 09:50:20;;;;;;;88.60;49.90;;;9.00;99.90;;;;;;6092170;23;20009;-80
2021/01/31 09:52:48;;;;;;;72.03;45.93;;;9.50;99.90;;;;;;6068662;23;20006;-79
2021/01/31 09:55:39;;;;;;;61.03;35.10;;;9.60;99.90;;;;;;6092714;23;20641;-79
2021/01/31 09:58:24;;;;;;;44.90;27.23;;;9.60;99.90;;;;;;6094000;23;20026;-80
2021/01/31 10:00:52;;;;;;;42.30;26.25;;;9.40;99.90;;;;;;6093018;23;20006;-80
2021/01/31 10:03:30;;;;;;;40.50;25.25;;;8.70;99.90;;;;;;6094833;23;20010;-79
2021/01/31 10:06:12;;;;;;;40.72;26.90;;;8.50;99.90;;;;;;6095245;23;19999;-78
2021/01/31 10:09:00;;;;;;;39.55;27.83;;;8.60;99.90;;;;;;6093679;23;20340;-78
2021/01/31 10:11:38;;;;;;;38.30;26.25;;;8.60;99.90;;;;;;6092487;23;20017;-79
2021/01/31 10:14:06;;;;;;;39.78;26.27;;;8.80;99.90;;;;;;6090922;23;20006;-78
2021/01/31 10:16:40;;;;;;;43.03;26.73;;;9.20;99.90;;;;;;6093094;23;20007;-77
2021/01/31 10:19:18;;;;;;;37.45;25.05;;;9.60;99.90;;;;;;6092093;23;20030;-80
2021/01/31 10:21:56;;;;;;;38.40;25.52;;;10.00;99.90;;;;;;6093422;23;20026;-81
2021/01/31 10:24:30;;;;;;;37.88;25.80;;;10.10;99.90;;;;;;6093476;23;20006;-81
2021/01/31 10:27:03;;;;;;;35.25;23.30;;;9.90;99.90;;;;;;6094371;23;20014;-78
2021/01/31 10:29:32;;;;;;;40.90;25.13;;;9.80;99.90;;;;;;6095017;23;20081;-77
2021/01/31 10:32:41;;;;;;;34.90;22.15;;;10.30;99.90;;;;;;6093289;23;20006;-78
2021/01/31 10:35:27;;;;;;;63.70;35.20;;;10.80;99.90;;;;;;6068352;23;20019;-79
2021/01/31 10:37:54;;;;;;;38.13;25.02;;;11.30;99.90;;;;;;6092276;23;20037;-78
2021/01/31 10:40:21;;;;;;;41.20;27.10;;;11.10;98.90;;;;;;6092525;23;20010;-79
2021/01/31 10:42:47;;;;;;;87.28;48.20;;;11.00;98.70;;;;;;6091863;23;20022;-80
2021/01/31 10:45:17;;;;;;;98.45;57.67;;;11.10;99.80;;;;;;6093878;23;20064;-81
2021/01/31 10:47:45;;;;;;;39.85;25.88;;;12.10;97.20;;;;;;6092513;23;20002;-78
2021/01/31 10:50:13;;;;;;;27.38;20.25;;;12.00;94.90;;;;;;6094983;23;20073;-80
2021/01/31 10:52:41;;;;;;;32.28;19.80;;;11.70;95.00;;;;;;6092840;23;20090;-79
2021/01/31 10:55:08;;;;;;;28.38;17.75;;;11.80;95.60;;;;;;6094538;23;20085;-82
2021/01/31 10:57:33;;;;;;;26.80;18.80;;;11.70;94.80;;;;;;6069243;23;20109;-84
2021/01/31 10:59:59;;;;;;;32.88;20.27;;;11.80;95.60;;;;;;6095256;23;20026;-82
2021/01/31 11:02:25;;;;;;;29.35;19.35;;;12.30;94.50;;;;;;6095087;23;20003;-85
2021/01/31 11:04:51;;;;;;;52.22;31.20;;;12.70;92.90;;;;;;6097799;23;20432;-80
2021/01/31 11:07:17;;;;;;;88.22;53.20;;;13.60;92.50;;;;;;6072387;23;20440;-83
2021/01/31 11:09:42;;;;;;;76.35;46.63;;;14.40;88.40;;;;;;6094467;23;20057;-81
2021/01/31 11:12:08;;;;;;;68.80;45.10;;;14.30;83.80;;;;;;6096156;23;20041;-85
2021/01/31 11:14:34;;;;;;;290.50;157.23;;;14.70;81.30;;;;;;6097557;23;20002;-83
2021/01/31 11:17:00;;;;;;;35.13;25.13;;;14.70;80.40;;;;;;6098134;23;20017;-86
2021/01/31 11:19:29;;;;;;;19.95;14.18;;;14.20;76.80;;;;;;6098343;23;20010;-86
2021/01/31 11:22:07;;;;;;;15.13;11.73;;;14.00;79.40;;;;;;6095320;23;19999;-83
2021/01/31 11:24:32;;;;;;;17.77;12.05;;;14.30;78.80;;;;;;6095411;23;20088;-85
2021/01/31 11:26:58;;;;;;;17.23;12.20;;;13.80;77.60;;;;;;6096563;23;20400;-83
2021/01/31 11:29:24;;;;;;;18.10;11.75;;;14.00;77.00;;;;;;6094252;23;20074;-86
2021/01/31 11:31:50;;;;;;;18.70;13.25;;;14.20;77.30;;;;;;6093851;23;20317;-84
2021/01/31 11:34:16;;;;;;;18.90;12.95;;;14.20;76.40;;;;;;6096162;23;20314;-80
2021/01/31 11:36:41;;;;;;;19.05;12.75;;;14.40;76.10;;;;;;6094890;23;20028;-83
2021/01/31 11:39:08;;;;;;;18.95;13.52;;;14.20;76.00;;;;;;6094486;23;20360;-82
2021/01/31 11:41:38;;;;;;;19.77;14.27;;;14.00;77.30;;;;;;6094408;23;20022;-84
2021/01/31 11:44:06;;;;;;;19.50;13.70;;;14.00;77.70;;;;;;6091813;23;20468;-85
2021/01/31 11:46:33;;;;;;;23.02;15.85;;;13.70;78.90;;;;;;6091997;23;20006;-84
2021/01/31 11:48:58;;;;;;;23.90;16.33;;;13.70;81.80;;;;;;6094307;23;20021;-85
2021/01/31 11:51:24;;;;;;;21.42;16.33;;;14.20;79.80;;;;;;6093685;23;20010;-81
2021/01/31 11:53:50;;;;;;;88.00;36.03;;;14.20;78.30;;;;;;6095093;23;20456;-83
2021/01/31 11:56:18;;;;;;;86.57;32.92;;;14.50;80.70;;;;;;6095749;23;20052;-83
2021/01/31 11:58:44;;;;;;;29.67;20.05;;;14.70;78.20;;;;;;6096411;23;20372;-86
2021/01/31 12:01:14;;;;;;;45.83;27.33;;;14.20;77.10;;;;;;6095108;23;20041;-86
2021/01/31 12:03:45;;;;;;;35.45;24.40;;;13.70;81.60;;;;;;6095085;23;20033;-85
2021/01/31 12:06:12;;;;;;;44.38;30.88;;;13.70;81.50;;;;;;6094218;23;20314;-80
2021/01/31 12:08:38;;;;;;;23.77;17.90;;;13.80;80.50;;;;;;6094872;23;20374;-82
2021/01/31 12:11:15;;;;;;;24.13;16.73;;;12.50;83.50;;;;;;6095276;23;20312;-80
2021/01/31 12:13:47;;;;;;;24.85;17.50;;;12.60;87.20;;;;;;6093894;23;20014;-81
2021/01/31 12:16:13;;;;;;;23.25;16.25;;;13.00;87.80;;;;;;6094466;23;20006;-83
2021/01/31 12:18:38;;;;;;;23.60;15.23;;;13.20;87.10;;;;;;6096335;23;20129;-81
2021/01/31 12:21:04;;;;;;;24.73;15.88;;;13.10;86.50;;;;;;6095612;23;20009;-79
2021/01/31 12:23:30;;;;;;;22.70;14.63;;;12.90;87.00;;;;;;6086230;23;20020;-82
2021/01/31 12:25:56;;;;;;;21.17;14.98;;;12.80;89.20;;;;;;6093190;23;19998;-80
2021/01/31 12:28:22;;;;;;;21.60;15.32;;;12.80;90.10;;;;;;6094336;23;20022;-80
2021/01/31 12:30:47;;;;;;;25.25;15.82;;;12.60;90.80;;;;;;6093389;23;20123;-81
2021/01/31 12:33:13;;;;;;;20.75;14.02;;;12.50;91.30;;;;;;6093043;23;20014;-78
2021/01/31 12:35:39;;;;;;;21.90;13.80;;;12.40;92.10;;;;;;6093391;23;20056;-79
2021/01/31 12:38:05;;;;;;;25.15;14.30;;;12.10;93.10;;;;;;6084894;23;20022;-78
2021/01/31 12:40:31;;;;;;;20.75;13.23;;;12.20;93.50;;;;;;6080385;23;20336;-79
2021/01/31 12:42:58;;;;;;;19.42;13.52;;;12.30;93.70;;;;;;6089008;23;20019;-82
2021/01/31 12:45:37;;;;;;;21.58;13.88;;;12.30;93.60;;;;;;6067671;23;20049;-80
2021/01/31 12:48:03;;;;;;;18.77;12.57;;;12.50;93.40;;;;;;6091150;23;20322;-81
2021/01/31 12:50:38;;;;;;;16.77;11.77;;;12.50;93.10;;;;;;6092910;23;20069;-82
2021/01/31 12:53:04;;;;;;;16.13;11.00;;;12.60;93.30;;;;;;6091389;23;20085;-79
2021/01/31 12:55:30;;;;;;;16.73;10.40;;;12.50;92.50;;;;;;6094730;23;20026;-78
2021/01/31 12:57:56;;;;;;;15.05;10.15;;;12.40;93.30;;;;;;6094572;23;20014;-79
2021/01/31 13:00:22;;;;;;;15.38;9.60;;;12.50;93.50;;;;;;6090421;23;20081;-79
2021/01/31 13:02:49;;;;;;;12.95;9.40;;;12.40;93.80;;;;;;6092595;23;20014;-80
2021/01/31 13:05:16;;;;;;;13.73;10.23;;;12.30;94.10;;;;;;6092565;23;20006;-79
2021/01/31 13:07:42;;;;;;;15.75;10.02;;;11.90;94.70;;;;;;6093122;23;19998;-78
2021/01/31 13:10:10;;;;;;;13.93;10.52;;;11.60;96.50;;;;;;6091991;23;20015;-80
2021/01/31 13:12:36;;;;;;;16.40;10.10;;;11.80;96.60;;;;;;6094019;23;20002;-82
2021/01/31 13:15:03;;;;;;;15.85;11.23;;;11.90;96.40;;;;;;6092631;23;20011;-82
2021/01/31 13:17:29;;;;;;;18.52;11.38;;;12.00;95.90;;;;;;6094038;23;20073;-78
2021/01/31 13:19:55;;;;;;;20.67;14.15;;;11.80;96.20;;;;;;6092762;23;20035;-80
2021/01/31 13:22:20;;;;;;;21.45;15.20;;;11.10;98.10;;;;;;6093105;23;20013;-81